• Join FlightAware (Why Join?)
  • Login
  • US Flag 
04:16AM EDT


 

Airport Tracker/Info


-or-


 

Live Flight TrackerFlight Track Log ✈ KAP66 ✈ 07-May-2013 ✈ KBOS - KACK

Flight Track Log - Related Links

Times and Time Zones

All times are in EDT time to prevent confusion due to time zone crossing. See the KAP66 flight status page for this flight to view local times or setup timezone preferences in your user account.

Time Position Orientation Groundspeed Altitude Reporting Facility
EDT Latitude Longitude Course Direction KTS MPH feet Rate Location/Type
10:52AM 42.2833 -71.0500 114° Southeast 118 136 2,000  Level KA90
10:53AM 42.2500 -71.0500 180° South 123 142 2,600 480 Climbing KA90
10:54AM 42.2167 -71.0167 143° Southeast 124 143 3,100 420 Climbing KA90
10:55AM 42.1833 -70.9833 143° Southeast 127 146 3,600 480 Climbing KA90
10:56AM 42.1667 -70.9500 124° Southeast 127 146 4,100 480 Climbing KA90
10:58AM 42.1736 -70.8422 114° Southeast  Level Estimated
10:58AM 42.1333 -70.9167 143° Southeast 135 155 4,600  Level KA90
10:59AM 42.1000 -70.8833 143° Southeast 139 160 5,000 180 Climbing KA90
11:00AM 42.0667 -70.8500 143° Southeast 148 170 5,000  Level KA90
11:00AM 42.0333 -70.8167 143° Southeast 157 181 5,000  Level KA90
11:01AM 42.0000 -70.7833 143° Southeast 157 181 5,000  Level KA90
11:03AM 41.9667 -70.7500 143° Southeast 155 178 5,000  Level KA90
11:04AM 41.9333 -70.7167 143° Southeast 152 175 5,000  Level KA90
11:05AM 41.9000 -70.6833 143° Southeast 149 171 5,000  Level KA90
11:07AM 41.8398 -70.6247 144° Southeast  Level Estimated
11:14AM 41.6270 -70.4185 144° Southeast  Level Estimated
11:15AM 41.5966 -70.3892 144° Southeast  Level Estimated
11:16AM 41.5662 -70.3599 144° Southeast  Level Estimated
11:17AM 41.5358 -70.3306 144° Southeast  Level Estimated
11:18AM 41.5053 -70.3014 144° Southeast  Level Estimated
11:19AM 41.4749 -70.2721 144° Southeast  Level Estimated
11:20AM 41.4444 -70.2429 144° Southeast  Level Estimated
11:21AM 41.4139 -70.2138 144° Southeast  Level Estimated
11:22AM 41.3835 -70.1846 144° Southeast  Level Estimated
11:23AM 41.3530 -70.1555 144° Southeast  Level Estimated
11:24AM 41.3225 -70.1264 144° Southeast  Level Estimated
11:25AM 41.2920 -70.0973 144° Southeast  Level Estimated
11:26AM 41.2615 -70.0683 144° Southeast  Level Estimated
11:27AM 41.2531 -70.0603 144° Southeast  Level Estimated
11:28AM 41.2531 -70.0603 72° East  Level Estimated
11:29AM 41.2531 -70.0603 72° East  Level Estimated
11:30AM 41.2531 -70.0603 72° East  Level Estimated
11:31AM 41.2531 -70.0603 72° East  Level Estimated